createdAt,value
2019-01-30T00:01:34.764Z,27.47
2019-01-30T00:04:25.238Z,25.00
2019-01-30T00:07:15.713Z,22.87
2019-01-30T00:10:06.364Z,22.83
2019-01-30T00:12:56.678Z,25.63
2019-01-30T00:15:56.148Z,29.30
2019-01-30T00:18:38.729Z,31.83
2019-01-30T00:21:29.333Z,34.43
2019-01-30T00:24:19.781Z,37.40
2019-01-30T00:27:10.688Z,41.13
2019-01-30T00:30:04.211Z,42.60
2019-01-30T00:32:53.524Z,36.40
2019-01-30T00:35:44.062Z,41.03
2019-01-30T00:38:34.496Z,35.70
2019-01-30T00:41:25.087Z,45.47
2019-01-30T00:44:16.641Z,39.73
2019-01-30T00:47:15.705Z,43.70
2019-01-30T00:49:59.436Z,40.43
2019-01-30T00:52:49.871Z,59.00
2019-01-30T00:55:41.495Z,54.50
2019-01-30T00:58:31.663Z,58.13
2019-01-30T01:01:22.258Z,62.50
2019-01-30T01:04:12.800Z,68.83
2019-01-30T01:07:03.002Z,73.30
2019-01-30T01:09:53.225Z,102.80
2019-01-30T01:12:43.622Z,90.53
2019-01-30T01:15:34.302Z,108.57
2019-01-30T01:18:24.933Z,109.80
2019-01-30T01:21:15.467Z,116.07
2019-01-30T01:24:06.015Z,126.67
2019-01-30T01:26:56.411Z,111.37
2019-01-30T01:29:46.829Z,123.00
2019-01-30T01:32:37.370Z,134.80
2019-01-30T01:35:27.968Z,103.67
2019-01-30T01:38:18.144Z,127.50
2019-01-30T01:41:08.581Z,143.67
2019-01-30T01:43:59.036Z,138.00
2019-01-30T01:46:49.475Z,138.03
2019-01-30T01:49:40.195Z,119.90
2019-01-30T01:52:30.757Z,121.83
2019-01-30T01:55:20.944Z,122.80
2019-01-30T01:58:11.598Z,119.40
2019-01-30T02:01:02.136Z,108.17
2019-01-30T02:03:53.202Z,127.70
2019-01-30T02:06:43.416Z,129.10
2019-01-30T02:09:33.902Z,153.33
2019-01-30T02:12:24.326Z,116.37
2019-01-30T02:15:17.146Z,115.27
2019-01-30T02:18:08.632Z,130.00
2019-01-30T02:20:58.926Z,116.90
2019-01-30T02:23:49.314Z,127.20
2019-01-30T02:26:40.058Z,117.80
2019-01-30T02:29:31.662Z,121.87
2019-01-30T02:32:22.375Z,140.73
2019-01-30T02:35:12.558Z,105.60
2019-01-30T02:38:02.807Z,124.33
2019-01-30T02:40:53.350Z,104.73
2019-01-30T02:43:43.566Z,115.73
2019-01-30T02:46:34.067Z,106.93
2019-01-30T02:49:24.520Z,113.07
2019-01-30T02:52:14.955Z,117.87
2019-01-30T02:55:05.541Z,114.37
2019-01-30T02:57:55.865Z,87.20
2019-01-30T03:00:58.536Z,95.37
2019-01-30T03:03:39.521Z,117.50
2019-01-30T03:06:30.007Z,113.73
2019-01-30T03:09:20.533Z,91.83
2019-01-30T03:12:11.106Z,102.87
2019-01-30T03:15:01.572Z,112.37
2019-01-30T03:17:52.084Z,117.80
2019-01-30T03:20:42.283Z,105.20
2019-01-30T03:23:32.789Z,107.33
2019-01-30T03:26:23.274Z,117.13
2019-01-30T03:29:14.518Z,135.20
2019-01-30T03:32:04.735Z,115.33
2019-01-30T03:34:54.931Z,135.83
2019-01-30T03:37:45.515Z,111.57
2019-01-30T03:40:36.179Z,111.53
2019-01-30T03:43:29.258Z,95.33
2019-01-30T03:46:19.916Z,104.70
2019-01-30T03:49:10.215Z,94.77
2019-01-30T03:52:00.641Z,111.63
2019-01-30T03:54:50.728Z,98.43
2019-01-30T03:57:41.689Z,94.93
2019-01-30T04:00:31.961Z,80.20
2019-01-30T04:03:22.522Z,84.93
2019-01-30T04:06:12.685Z,79.07
2019-01-30T04:09:04.350Z,80.93
2019-01-30T04:11:54.607Z,70.83
2019-01-30T04:14:45.577Z,77.40
2019-01-30T04:17:36.261Z,71.50
2019-01-30T04:20:26.955Z,72.53
2019-01-30T04:23:17.326Z,81.33
2019-01-30T04:26:07.760Z,79.50
2019-01-30T04:28:59.014Z,67.57
2019-01-30T04:31:49.545Z,66.10
2019-01-30T04:34:39.652Z,75.60
2019-01-30T04:37:29.959Z,73.73
2019-01-30T04:40:21.066Z,83.23
2019-01-30T04:43:11.517Z,78.33
2019-01-30T04:46:01.913Z,73.90
2019-01-30T04:48:52.497Z,72.50
2019-01-30T04:51:43.089Z,74.70
2019-01-30T04:54:33.749Z,76.43
2019-01-30T04:57:24.356Z,63.47
2019-01-30T05:00:16.984Z,73.70
2019-01-30T05:03:07.488Z,66.17
2019-01-30T05:05:58.298Z,50.63
2019-01-30T05:08:48.612Z,44.37
2019-01-30T05:11:39.168Z,37.00
2019-01-30T05:14:29.413Z,24.37
2019-01-30T05:17:19.702Z,26.23
2019-01-30T05:20:11.192Z,23.47
2019-01-30T05:23:01.819Z,21.63
2019-01-30T05:25:54.730Z,21.97
2019-01-30T05:28:45.235Z,28.27
2019-01-30T05:31:35.801Z,41.77
2019-01-30T05:34:28.172Z,58.20
2019-01-30T05:37:18.700Z,47.63
2019-01-30T05:40:11.592Z,48.07
2019-01-30T05:43:01.989Z,39.47
2019-01-30T05:45:52.651Z,46.40
2019-01-30T05:48:43.275Z,29.53
2019-01-30T05:51:33.941Z,35.20
2019-01-30T05:54:24.372Z,33.93
2019-01-30T05:57:14.547Z,39.77
2019-01-30T06:00:04.887Z,44.23
2019-01-30T06:02:55.109Z,37.30
2019-01-30T06:05:45.301Z,44.93
2019-01-30T06:08:35.805Z,41.37
2019-01-30T06:11:27.163Z,35.63
2019-01-30T06:14:18.851Z,36.10
2019-01-30T06:17:09.767Z,50.07
2019-01-30T06:20:00.491Z,43.33
2019-01-30T06:22:51.064Z,46.07
2019-01-30T06:25:41.778Z,40.00
2019-01-30T06:28:32.376Z,41.17
2019-01-30T06:31:22.572Z,39.80
2019-01-30T06:34:12.785Z,37.07
2019-01-30T06:37:03.674Z,33.67
2019-01-30T06:39:54.178Z,30.77
2019-01-30T06:42:44.725Z,23.70
2019-01-30T06:45:35.182Z,23.90
2019-01-30T06:48:25.439Z,17.60
2019-01-30T06:51:15.828Z,26.40
2019-01-30T06:54:06.141Z,20.77
2019-01-30T06:56:56.771Z,22.00
2019-01-30T06:59:47.385Z,20.73
2019-01-30T07:02:37.732Z,18.63
2019-01-30T07:05:28.182Z,25.23
2019-01-30T07:08:18.647Z,24.57
2019-01-30T07:11:10.811Z,20.23
2019-01-30T07:14:01.498Z,21.13
2019-01-30T07:16:52.657Z,20.87
2019-01-30T07:19:43.062Z,18.57
2019-01-30T07:22:33.287Z,21.97
2019-01-30T07:25:24.190Z,21.03
2019-01-30T07:28:14.852Z,24.77
2019-01-30T07:31:05.328Z,24.80
2019-01-30T07:33:56.112Z,20.97
2019-01-30T07:36:46.715Z,22.93
2019-01-30T07:39:37.150Z,21.17
2019-01-30T07:42:30.381Z,23.93
2019-01-30T07:45:21.696Z,31.70
2019-01-30T07:48:12.120Z,23.60
2019-01-30T07:51:02.892Z,28.10
2019-01-30T07:53:54.860Z,24.27
2019-01-30T07:56:45.523Z,22.63
2019-01-30T07:59:35.931Z,23.47
2019-01-30T08:02:26.405Z,29.10
2019-01-30T08:05:17.011Z,21.87
2019-01-30T08:08:07.584Z,27.57
2019-01-30T08:10:58.030Z,22.80
2019-01-30T08:13:48.255Z,27.43
2019-01-30T08:16:38.968Z,24.97
2019-01-30T08:19:29.716Z,27.50
2019-01-30T08:22:19.924Z,29.23
2019-01-30T08:25:11.122Z,19.17
2019-01-30T08:28:01.696Z,30.97
2019-01-30T08:30:52.748Z,23.30
2019-01-30T08:33:42.939Z,23.80
2019-01-30T08:36:33.407Z,22.07
2019-01-30T08:39:23.924Z,24.00
2019-01-30T08:42:14.427Z,25.43
2019-01-30T08:45:05.256Z,27.73
2019-01-30T08:47:55.820Z,26.53
2019-01-30T08:50:46.240Z,18.83
2019-01-30T08:53:36.799Z,19.77
2019-01-30T08:56:27.386Z,18.57
2019-01-30T08:59:17.827Z,16.90
2019-01-30T09:02:08.212Z,19.83
2019-01-30T09:04:58.559Z,20.47
2019-01-30T09:07:48.985Z,21.83
2019-01-30T09:10:39.284Z,23.13
2019-01-30T09:13:29.772Z,30.63
2019-01-30T09:16:20.483Z,22.27
2019-01-30T09:19:11.308Z,25.37
2019-01-30T09:22:02.165Z,21.17
2019-01-30T09:24:53.406Z,20.40
2019-01-30T09:27:44.344Z,31.10
2019-01-30T09:30:39.342Z,29.20
2019-01-30T09:33:29.908Z,24.53
2019-01-30T09:36:20.581Z,29.30
2019-01-30T09:39:11.380Z,25.00
2019-01-30T09:42:01.793Z,25.03
2019-01-30T09:44:52.449Z,21.70
2019-01-30T09:47:42.816Z,22.37
2019-01-30T09:50:34.314Z,25.97
2019-01-30T09:53:24.628Z,22.87
2019-01-30T09:56:15.794Z,21.57
2019-01-30T09:59:06.114Z,19.90
2019-01-30T10:01:59.243Z,12.60
2019-01-30T10:04:49.313Z,21.10
2019-01-30T10:07:39.500Z,19.10
2019-01-30T10:10:31.609Z,20.63
2019-01-30T10:13:22.188Z,20.80
2019-01-30T10:16:15.466Z,24.33
2019-01-30T10:19:05.923Z,21.00
2019-01-30T10:21:56.451Z,19.17
2019-01-30T10:24:46.729Z,21.57
2019-01-30T10:27:37.399Z,19.57
2019-01-30T10:30:30.034Z,22.27
2019-01-30T10:33:20.646Z,21.87
2019-01-30T10:36:11.202Z,23.13
2019-01-30T10:39:01.212Z,25.37
2019-01-30T10:41:51.706Z,29.57
2019-01-30T10:44:45.064Z,23.47
2019-01-30T10:47:35.229Z,13.37
2019-01-30T10:50:26.415Z,27.40
2019-01-30T10:53:17.017Z,17.70
2019-01-30T10:56:07.200Z,23.53
2019-01-30T10:58:57.462Z,15.37
2019-01-30T11:01:47.799Z,24.33
2019-01-30T11:04:38.179Z,20.30
2019-01-30T11:07:28.687Z,17.07
2019-01-30T11:10:19.714Z,15.67
2019-01-30T11:13:10.111Z,15.20
2019-01-30T11:16:01.312Z,14.87
2019-01-30T11:18:51.895Z,15.90
2019-01-30T11:21:42.324Z,15.03
2019-01-30T11:24:32.712Z,16.80
2019-01-30T11:27:22.942Z,17.83
2019-01-30T11:30:13.643Z,14.37
2019-01-30T11:33:04.253Z,15.00
2019-01-30T11:35:54.779Z,14.57
2019-01-30T11:38:45.462Z,16.63
2019-01-30T11:41:35.802Z,16.23
2019-01-30T11:44:27.957Z,17.77
2019-01-30T11:47:18.386Z,18.40
2019-01-30T11:50:10.409Z,21.40
2019-01-30T11:53:00.939Z,14.47
2019-01-30T11:55:51.871Z,12.77
2019-01-30T11:58:42.265Z,17.13
2019-01-30T12:01:32.512Z,16.73
2019-01-30T12:04:22.755Z,19.17
2019-01-30T12:07:13.200Z,21.43
2019-01-30T12:10:03.571Z,19.23
2019-01-30T12:12:54.132Z,16.30
2019-01-30T12:15:44.588Z,15.50
2019-01-30T12:18:35.236Z,21.10
2019-01-30T12:21:25.632Z,19.47
2019-01-30T12:24:16.482Z,20.83
2019-01-30T12:27:08.555Z,14.60
2019-01-30T12:29:59.237Z,14.93
2019-01-30T12:32:49.448Z,14.27
2019-01-30T12:35:39.950Z,16.27
2019-01-30T12:38:30.311Z,16.47
2019-01-30T12:41:20.601Z,16.37
2019-01-30T12:44:11.031Z,10.67
2019-01-30T12:47:01.244Z,13.93
2019-01-30T12:49:51.591Z,15.33
2019-01-30T12:52:42.088Z,9.60
2019-01-30T12:55:32.694Z,7.30
2019-01-30T12:58:23.372Z,10.80
2019-01-30T13:01:13.966Z,10.63
2019-01-30T13:04:04.668Z,7.37
2019-01-30T13:06:55.074Z,6.57
2019-01-30T13:09:45.815Z,9.90
2019-01-30T13:12:36.400Z,10.53
2019-01-30T13:15:27.703Z,11.60
2019-01-30T13:18:18.580Z,11.33
2019-01-30T13:21:09.393Z,8.13
2019-01-30T13:23:59.753Z,7.97
2019-01-30T13:26:50.113Z,8.17
2019-01-30T13:29:40.741Z,9.43
2019-01-30T13:32:33.212Z,9.57
2019-01-30T13:35:24.601Z,8.20
2019-01-30T13:38:15.253Z,9.30
2019-01-30T13:41:05.924Z,9.13
2019-01-30T13:43:56.330Z,13.10
2019-01-30T13:46:51.521Z,5.93
2019-01-30T13:49:45.206Z,12.30
2019-01-30T13:52:35.667Z,9.50
2019-01-30T13:55:26.004Z,9.20
2019-01-30T13:58:18.278Z,10.53
2019-01-30T14:01:17.305Z,9.97
2019-01-30T14:04:00.753Z,10.73
2019-01-30T14:06:51.331Z,12.00
2019-01-30T14:09:41.903Z,11.47
2019-01-30T14:12:32.744Z,12.63
2019-01-30T14:15:23.717Z,9.87
2019-01-30T14:18:14.326Z,12.27
2019-01-30T14:21:04.479Z,10.43
2019-01-30T14:23:54.995Z,17.60
2019-01-30T14:26:45.347Z,10.70
2019-01-30T14:29:36.027Z,13.43
2019-01-30T14:32:27.575Z,11.30
2019-01-30T14:35:18.005Z,11.83
2019-01-30T14:38:08.751Z,10.70
2019-01-30T14:40:59.386Z,11.20
2019-01-30T14:43:49.960Z,14.00
2019-01-30T14:46:40.783Z,15.37
2019-01-30T14:49:33.728Z,10.63
2019-01-30T14:52:23.992Z,14.73
2019-01-30T14:55:14.480Z,14.07
2019-01-30T14:58:05.322Z,15.90
2019-01-30T15:00:55.744Z,13.57
2019-01-30T15:03:47.513Z,20.57
2019-01-30T15:06:37.941Z,16.00
2019-01-30T15:09:28.164Z,18.97
2019-01-30T15:12:18.692Z,15.17
2019-01-30T15:15:11.620Z,17.23
2019-01-30T15:18:01.845Z,16.57
2019-01-30T15:20:54.654Z,19.20
2019-01-30T15:23:45.235Z,20.17
2019-01-30T15:26:35.771Z,13.90
2019-01-30T15:29:26.219Z,18.07
2019-01-30T15:32:16.901Z,18.07
2019-01-30T15:35:07.887Z,20.03
2019-01-30T15:37:58.406Z,15.20
2019-01-30T15:40:48.774Z,16.83
2019-01-30T15:43:39.031Z,16.73
2019-01-30T15:46:29.098Z,21.77
2019-01-30T15:49:19.316Z,17.63
2019-01-30T15:52:09.809Z,20.80
2019-01-30T15:55:00.130Z,14.80
2019-01-30T15:57:55.917Z,15.10
2019-01-30T16:01:09.820Z,15.43
2019-01-30T16:04:00.159Z,14.30
2019-01-30T16:06:51.169Z,15.27
2019-01-30T16:09:41.328Z,21.00
2019-01-30T16:12:32.118Z,7.53
2019-01-30T16:15:25.577Z,13.80
2019-01-30T16:18:16.153Z,12.30
2019-01-30T16:21:06.579Z,15.07
2019-01-30T16:23:57.076Z,16.83
2019-01-30T16:26:47.230Z,13.30
2019-01-30T16:29:38.491Z,13.43
2019-01-30T16:32:29.027Z,15.30
2019-01-30T16:35:25.677Z,15.17
2019-01-30T16:38:16.120Z,15.33
2019-01-30T16:41:06.674Z,9.83
2019-01-30T16:43:56.918Z,16.37
2019-01-30T16:46:47.422Z,15.43
2019-01-30T16:49:38.106Z,12.10
2019-01-30T16:52:28.598Z,15.63
2019-01-30T16:55:19.218Z,13.90
2019-01-30T16:58:11.067Z,14.90
2019-01-30T17:01:01.253Z,16.70
2019-01-30T17:03:51.622Z,19.17
2019-01-30T17:06:43.875Z,12.97
2019-01-30T17:09:34.244Z,16.40
2019-01-30T17:12:24.651Z,20.23
2019-01-30T17:15:17.724Z,18.43
2019-01-30T17:18:09.339Z,18.47
2019-01-30T17:20:59.707Z,15.40
2019-01-30T17:23:50.115Z,19.43
2019-01-30T17:26:40.210Z,20.00
2019-01-30T17:29:30.708Z,14.97
2019-01-30T17:32:21.548Z,14.43
2019-01-30T17:35:11.941Z,17.30
2019-01-30T17:38:02.757Z,15.87
2019-01-30T17:40:53.195Z,11.37
2019-01-30T17:43:43.807Z,12.37
2019-01-30T17:46:34.048Z,13.53
2019-01-30T17:49:24.607Z,8.97
2019-01-30T17:52:14.826Z,8.83
2019-01-30T17:55:05.666Z,9.40
2019-01-30T17:57:55.981Z,4.97
2019-01-30T18:01:04.586Z,8.00
2019-01-30T18:03:55.074Z,11.53
2019-01-30T18:06:46.748Z,10.83
2019-01-30T18:09:37.290Z,10.07
2019-01-30T18:12:28.001Z,13.23
2019-01-30T18:15:18.497Z,16.93
2019-01-30T18:18:09.356Z,14.53
2019-01-30T18:20:59.885Z,17.93
2019-01-30T18:23:50.112Z,19.27
2019-01-30T18:26:40.267Z,17.10
2019-01-30T18:29:30.490Z,18.17
2019-01-30T18:32:20.893Z,23.40
2019-01-30T18:35:11.553Z,19.07
2019-01-30T18:38:02.849Z,22.60
2019-01-30T18:40:53.723Z,26.80
2019-01-30T18:43:45.541Z,20.10
2019-01-30T18:46:36.439Z,26.97
2019-01-30T18:49:27.660Z,25.07
2019-01-30T18:52:20.763Z,17.63
2019-01-30T18:55:11.065Z,19.13
2019-01-30T18:58:01.644Z,24.30
2019-01-30T19:00:52.424Z,27.03
2019-01-30T19:03:43.180Z,27.70
2019-01-30T19:06:33.654Z,22.67
2019-01-30T19:09:24.001Z,24.20
2019-01-30T19:12:14.767Z,22.77
2019-01-30T19:15:05.709Z,28.20
2019-01-30T19:17:55.900Z,31.40
2019-01-30T19:20:48.193Z,23.40
2019-01-30T19:23:38.604Z,26.63
2019-01-30T19:26:28.976Z,21.40
2019-01-30T19:29:19.482Z,24.13
2019-01-30T19:32:10.022Z,28.40
2019-01-30T19:35:00.481Z,24.77
2019-01-30T19:37:51.200Z,25.73
2019-01-30T19:40:42.006Z,26.20
2019-01-30T19:43:33.940Z,27.07
2019-01-30T19:46:24.465Z,25.53
2019-01-30T19:49:14.972Z,23.53
2019-01-30T19:52:05.193Z,25.47
2019-01-30T19:54:55.370Z,24.63
2019-01-30T19:57:45.895Z,31.90
2019-01-30T20:00:39.185Z,30.23
2019-01-30T20:03:32.504Z,28.93
2019-01-30T20:06:23.035Z,30.80
2019-01-30T20:09:18.382Z,26.37
2019-01-30T20:12:09.369Z,32.47
2019-01-30T20:14:59.791Z,28.00
2019-01-30T20:17:50.567Z,29.87
2019-01-30T20:20:40.960Z,27.40
2019-01-30T20:23:31.168Z,30.50
2019-01-30T20:26:21.325Z,25.57
2019-01-30T20:29:11.898Z,18.73
2019-01-30T20:32:02.384Z,27.03
2019-01-30T20:34:52.989Z,25.80
2019-01-30T20:37:43.603Z,23.10
2019-01-30T20:40:34.113Z,25.90
2019-01-30T20:43:24.585Z,24.83
2019-01-30T20:46:15.251Z,19.73
2019-01-30T20:49:05.697Z,24.77
2019-01-30T20:51:57.413Z,26.43
2019-01-30T20:54:47.493Z,20.53
2019-01-30T20:57:40.512Z,19.67
2019-01-30T21:00:35.005Z,20.20
2019-01-30T21:03:25.680Z,23.17
2019-01-30T21:06:16.098Z,21.03
2019-01-30T21:09:09.689Z,26.30
2019-01-30T21:11:59.788Z,25.53
2019-01-30T21:14:50.298Z,28.43
2019-01-30T21:17:40.747Z,23.83
2019-01-30T21:20:31.524Z,19.40
2019-01-30T21:23:21.928Z,25.80
2019-01-30T21:26:13.152Z,17.93
2019-01-30T21:29:03.716Z,29.27
2019-01-30T21:31:54.991Z,18.60
2019-01-30T21:34:45.451Z,15.73
2019-01-30T21:37:36.179Z,15.47
2019-01-30T21:40:26.577Z,21.13
2019-01-30T21:43:17.065Z,13.60
2019-01-30T21:46:07.537Z,12.73
2019-01-30T21:48:57.929Z,14.27
2019-01-30T21:51:48.349Z,15.03
2019-01-30T21:54:38.974Z,14.97
2019-01-30T21:57:29.483Z,13.10
2019-01-30T22:00:21.585Z,13.40
2019-01-30T22:03:12.072Z,21.70
2019-01-30T22:06:02.751Z,23.20
2019-01-30T22:08:53.311Z,18.77
2019-01-30T22:11:44.043Z,15.60
2019-01-30T22:14:34.545Z,22.30
2019-01-30T22:17:24.980Z,18.40
2019-01-30T22:20:17.270Z,23.27
2019-01-30T22:23:07.739Z,16.57
2019-01-30T22:25:58.205Z,18.13
2019-01-30T22:28:48.754Z,15.03
2019-01-30T22:31:39.147Z,15.37
2019-01-30T22:34:29.658Z,18.63
2019-01-30T22:37:20.672Z,18.07
2019-01-30T22:40:11.669Z,21.40
2019-01-30T22:43:01.851Z,8.13
2019-01-30T22:45:52.256Z,12.63
2019-01-30T22:48:42.982Z,6.33
2019-01-30T22:51:33.726Z,6.40
2019-01-30T22:54:23.959Z,7.30
2019-01-30T22:57:14.864Z,6.37
2019-01-30T23:00:06.868Z,10.73
2019-01-30T23:02:59.201Z,8.67
2019-01-30T23:06:37.583Z,5.53
2019-01-30T23:10:20.867Z,7.13
2019-01-30T23:13:48.915Z,7.43
2019-01-30T23:17:27.915Z,6.07
2019-01-30T23:20:28.463Z,6.40
2019-01-30T23:23:46.738Z,8.80
2019-01-30T23:27:01.219Z,7.47
2019-01-30T23:30:13.011Z,7.07
2019-01-30T23:33:39.199Z,8.80
2019-01-30T23:37:10.821Z,7.00
2019-01-30T23:40:18.676Z,6.57
2019-01-30T23:43:58.144Z,7.23
2019-01-30T23:47:24.079Z,8.83
2019-01-30T23:50:52.768Z,9.30
2019-01-30T23:54:18.776Z,6.37
2019-01-30T23:57:36.102Z,8.90
